sensor_id;sensor_type;location;lat;lon;timestamp;P1;durP1;ratioP1;P2;durP2;ratioP2
10872;SDS011;34586;53.616;10.032;2022-10-16T00:00:56;5.67;;;5.13;;
10872;SDS011;34586;53.616;10.032;2022-10-16T00:03:22;6.23;;;5.20;;
10872;SDS011;34586;53.616;10.032;2022-10-16T00:05:47;6.23;;;4.90;;
10872;SDS011;34586;53.616;10.032;2022-10-16T00:08:14;5.33;;;4.57;;
10872;SDS011;34586;53.616;10.032;2022-10-16T00:10:42;6.23;;;4.43;;
10872;SDS011;34586;53.616;10.032;2022-10-16T00:13:08;4.93;;;4.50;;
10872;SDS011;34586;53.616;10.032;2022-10-16T00:15:34;5.43;;;4.87;;
10872;SDS011;34586;53.616;10.032;2022-10-16T00:18:01;7.60;;;4.97;;
10872;SDS011;34586;53.616;10.032;2022-10-16T00:20:28;6.20;;;4.53;;
10872;SDS011;34586;53.616;10.032;2022-10-16T00:22:54;5.27;;;4.47;;
10872;SDS011;34586;53.616;10.032;2022-10-16T00:25:19;8.90;;;4.27;;
10872;SDS011;34586;53.616;10.032;2022-10-16T00:27:45;6.23;;;4.13;;
10872;SDS011;34586;53.616;10.032;2022-10-16T00:30:11;4.67;;;4.07;;
10872;SDS011;34586;53.616;10.032;2022-10-16T00:32:37;6.20;;;3.90;;
10872;SDS011;34586;53.616;10.032;2022-10-16T00:35:03;7.00;;;3.23;;
10872;SDS011;34586;53.616;10.032;2022-10-16T00:37:30;4.97;;;3.10;;
10872;SDS011;34586;53.616;10.032;2022-10-16T00:39:56;5.27;;;2.37;;
10872;SDS011;34586;53.616;10.032;2022-10-16T00:42:22;3.13;;;1.97;;
10872;SDS011;34586;53.616;10.032;2022-10-16T00:44:51;7.57;;;2.70;;
10872;SDS011;34586;53.616;10.032;2022-10-16T00:50:26;4.77;;;1.90;;
10872;SDS011;34586;53.616;10.032;2022-10-16T00:52:54;5.83;;;1.70;;
10872;SDS011;34586;53.616;10.032;2022-10-16T00:55:21;3.60;;;1.90;;
10872;SDS011;34586;53.616;10.032;2022-10-16T00:57:47;5.20;;;2.07;;
10872;SDS011;34586;53.616;10.032;2022-10-16T01:00:16;6.00;;;1.63;;
10872;SDS011;34586;53.616;10.032;2022-10-16T01:02:44;1.93;;;1.47;;
10872;SDS011;34586;53.616;10.032;2022-10-16T01:05:16;3.83;;;1.87;;
10872;SDS011;34586;53.616;10.032;2022-10-16T01:07:48;3.03;;;1.87;;
10872;SDS011;34586;53.616;10.032;2022-10-16T01:13:18;3.43;;;1.37;;
10872;SDS011;34586;53.616;10.032;2022-10-16T01:15:56;5.63;;;1.37;;
10872;SDS011;34586;53.616;10.032;2022-10-16T01:18:38;2.70;;;1.40;;
10872;SDS011;34586;53.616;10.032;2022-10-16T01:32:40;2.13;;;1.40;;
10872;SDS011;34586;53.616;10.032;2022-10-16T01:35:18;3.53;;;1.53;;
10872;SDS011;34586;53.616;10.032;2022-10-16T01:37:51;3.93;;;1.50;;
10872;SDS011;34586;53.616;10.032;2022-10-16T01:40:18;6.97;;;1.53;;
10872;SDS011;34586;53.616;10.032;2022-10-16T01:42:50;5.40;;;1.40;;
10872;SDS011;34586;53.616;10.032;2022-10-16T01:45:19;3.83;;;1.40;;
10872;SDS011;34586;53.616;10.032;2022-10-16T01:47:46;3.37;;;1.47;;
10872;SDS011;34586;53.616;10.032;2022-10-16T01:50:15;4.30;;;1.30;;
10872;SDS011;34586;53.616;10.032;2022-10-16T01:52:43;3.37;;;1.57;;
10872;SDS011;34586;53.616;10.032;2022-10-16T01:55:12;3.63;;;1.63;;
10872;SDS011;34586;53.616;10.032;2022-10-16T01:57:41;5.47;;;1.53;;
10872;SDS011;34586;53.616;10.032;2022-10-16T02:00:12;6.37;;;1.40;;
10872;SDS011;34586;53.616;10.032;2022-10-16T02:02:40;2.80;;;1.50;;
10872;SDS011;34586;53.616;10.032;2022-10-16T02:05:12;3.27;;;1.43;;
10872;SDS011;34586;53.616;10.032;2022-10-16T02:07:40;4.23;;;1.60;;
10872;SDS011;34586;53.616;10.032;2022-10-16T02:10:07;3.37;;;1.40;;
10872;SDS011;34586;53.616;10.032;2022-10-16T02:12:33;4.40;;;1.50;;
10872;SDS011;34586;53.616;10.032;2022-10-16T02:15:04;3.60;;;1.50;;
10872;SDS011;34586;53.616;10.032;2022-10-16T02:17:30;5.97;;;1.30;;
10872;SDS011;34586;53.616;10.032;2022-10-16T02:19:56;3.90;;;1.53;;
10872;SDS011;34586;53.616;10.032;2022-10-16T02:22:30;4.47;;;1.40;;
10872;SDS011;34586;53.616;10.032;2022-10-16T02:25:06;2.87;;;1.20;;
10872;SDS011;34586;53.616;10.032;2022-10-16T02:30:10;2.80;;;1.10;;
10872;SDS011;34586;53.616;10.032;2022-10-16T02:32:54;4.67;;;1.40;;
10872;SDS011;34586;53.616;10.032;2022-10-16T02:35:21;3.97;;;1.20;;
10872;SDS011;34586;53.616;10.032;2022-10-16T02:37:49;6.50;;;1.33;;
10872;SDS011;34586;53.616;10.032;2022-10-16T02:40:15;4.97;;;1.27;;
10872;SDS011;34586;53.616;10.032;2022-10-16T02:42:42;3.50;;;1.23;;
10872;SDS011;34586;53.616;10.032;2022-10-16T02:45:09;3.17;;;1.33;;
10872;SDS011;34586;53.616;10.032;2022-10-16T02:47:35;2.87;;;1.03;;
10872;SDS011;34586;53.616;10.032;2022-10-16T02:50:02;3.23;;;1.33;;
10872;SDS011;34586;53.616;10.032;2022-10-16T02:52:28;4.47;;;1.00;;
10872;SDS011;34586;53.616;10.032;2022-10-16T02:54:53;1.70;;;1.03;;
10872;SDS011;34586;53.616;10.032;2022-10-16T02:57:19;4.40;;;1.50;;
10872;SDS011;34586;53.616;10.032;2022-10-16T02:59:45;1.77;;;1.13;;
10872;SDS011;34586;53.616;10.032;2022-10-16T03:02:10;2.50;;;1.20;;
10872;SDS011;34586;53.616;10.032;2022-10-16T03:04:36;1.93;;;0.97;;
10872;SDS011;34586;53.616;10.032;2022-10-16T03:07:02;3.70;;;1.30;;
10872;SDS011;34586;53.616;10.032;2022-10-16T03:09:28;1.30;;;0.93;;
10872;SDS011;34586;53.616;10.032;2022-10-16T03:11:54;4.10;;;0.93;;
10872;SDS011;34586;53.616;10.032;2022-10-16T03:14:20;2.63;;;1.07;;
10872;SDS011;34586;53.616;10.032;2022-10-16T03:16:45;2.80;;;1.03;;
10872;SDS011;34586;53.616;10.032;2022-10-16T03:19:11;3.03;;;0.90;;
10872;SDS011;34586;53.616;10.032;2022-10-16T03:21:36;1.83;;;1.00;;
10872;SDS011;34586;53.616;10.032;2022-10-16T03:24:02;3.20;;;1.10;;
10872;SDS011;34586;53.616;10.032;2022-10-16T03:26:27;2.10;;;1.00;;
10872;SDS011;34586;53.616;10.032;2022-10-16T03:28:53;5.07;;;1.33;;
10872;SDS011;34586;53.616;10.032;2022-10-16T03:31:18;2.00;;;1.10;;
10872;SDS011;34586;53.616;10.032;2022-10-16T03:33:44;8.50;;;1.47;;
10872;SDS011;34586;53.616;10.032;2022-10-16T03:36:09;3.20;;;1.70;;
10872;SDS011;34586;53.616;10.032;2022-10-16T03:38:35;3.20;;;1.33;;
10872;SDS011;34586;53.616;10.032;2022-10-16T03:41:00;5.07;;;1.40;;
10872;SDS011;34586;53.616;10.032;2022-10-16T03:43:26;5.50;;;1.40;;
10872;SDS011;34586;53.616;10.032;2022-10-16T03:45:52;3.77;;;1.30;;
10872;SDS011;34586;53.616;10.032;2022-10-16T03:48:18;4.03;;;1.13;;
10872;SDS011;34586;53.616;10.032;2022-10-16T03:50:44;3.37;;;1.20;;
10872;SDS011;34586;53.616;10.032;2022-10-16T03:53:11;4.10;;;1.23;;
10872;SDS011;34586;53.616;10.032;2022-10-16T03:55:36;4.20;;;0.90;;
10872;SDS011;34586;53.616;10.032;2022-10-16T03:58:02;3.60;;;1.43;;
10872;SDS011;34586;53.616;10.032;2022-10-16T04:00:27;3.47;;;1.23;;
10872;SDS011;34586;53.616;10.032;2022-10-16T04:02:53;3.63;;;1.00;;
10872;SDS011;34586;53.616;10.032;2022-10-16T04:05:18;3.47;;;1.30;;
10872;SDS011;34586;53.616;10.032;2022-10-16T04:07:44;2.07;;;1.17;;
10872;SDS011;34586;53.616;10.032;2022-10-16T04:10:10;2.47;;;1.00;;
10872;SDS011;34586;53.616;10.032;2022-10-16T04:12:35;2.10;;;0.87;;
10872;SDS011;34586;53.616;10.032;2022-10-16T04:15:01;4.17;;;1.30;;
10872;SDS011;34586;53.616;10.032;2022-10-16T04:17:26;3.67;;;1.10;;
10872;SDS011;34586;53.616;10.032;2022-10-16T04:19:52;4.47;;;1.00;;
10872;SDS011;34586;53.616;10.032;2022-10-16T04:22:18;1.53;;;1.27;;
10872;SDS011;34586;53.616;10.032;2022-10-16T04:24:43;2.83;;;1.10;;
10872;SDS011;34586;53.616;10.032;2022-10-16T04:27:09;2.53;;;1.00;;
10872;SDS011;34586;53.616;10.032;2022-10-16T04:29:34;5.20;;;1.13;;
10872;SDS011;34586;53.616;10.032;2022-10-16T04:32:00;2.47;;;1.07;;
10872;SDS011;34586;53.616;10.032;2022-10-16T04:34:26;2.33;;;1.40;;
10872;SDS011;34586;53.616;10.032;2022-10-16T04:36:52;4.40;;;0.90;;
10872;SDS011;34586;53.616;10.032;2022-10-16T04:39:17;1.93;;;0.93;;
10872;SDS011;34586;53.616;10.032;2022-10-16T04:41:43;4.03;;;1.20;;
10872;SDS011;34586;53.616;10.032;2022-10-16T04:44:09;2.00;;;1.03;;
10872;SDS011;34586;53.616;10.032;2022-10-16T04:46:34;3.53;;;1.30;;
10872;SDS011;34586;53.616;10.032;2022-10-16T04:49:00;2.07;;;1.20;;
10872;SDS011;34586;53.616;10.032;2022-10-16T04:51:26;2.20;;;1.13;;
10872;SDS011;34586;53.616;10.032;2022-10-16T04:53:52;1.93;;;0.90;;
10872;SDS011;34586;53.616;10.032;2022-10-16T04:56:18;4.80;;;0.93;;
10872;SDS011;34586;53.616;10.032;2022-10-16T04:58:44;3.80;;;1.07;;
10872;SDS011;34586;53.616;10.032;2022-10-16T05:01:09;5.00;;;1.47;;
10872;SDS011;34586;53.616;10.032;2022-10-16T05:03:35;2.40;;;1.00;;
10872;SDS011;34586;53.616;10.032;2022-10-16T05:06:00;2.97;;;1.00;;
10872;SDS011;34586;53.616;10.032;2022-10-16T05:08:26;2.47;;;1.00;;
10872;SDS011;34586;53.616;10.032;2022-10-16T05:10:52;6.43;;;1.57;;
10872;SDS011;34586;53.616;10.032;2022-10-16T05:13:17;4.37;;;1.33;;
10872;SDS011;34586;53.616;10.032;2022-10-16T05:15:47;5.33;;;1.40;;
10872;SDS011;34586;53.616;10.032;2022-10-16T05:18:13;1.50;;;1.30;;
10872;SDS011;34586;53.616;10.032;2022-10-16T05:20:39;3.27;;;1.60;;
10872;SDS011;34586;53.616;10.032;2022-10-16T05:23:04;2.90;;;1.60;;
10872;SDS011;34586;53.616;10.032;2022-10-16T05:25:30;3.00;;;1.60;;
10872;SDS011;34586;53.616;10.032;2022-10-16T05:27:55;2.87;;;1.60;;
10872;SDS011;34586;53.616;10.032;2022-10-16T05:30:21;4.10;;;1.83;;
10872;SDS011;34586;53.616;10.032;2022-10-16T05:32:50;2.47;;;1.67;;
10872;SDS011;34586;53.616;10.032;2022-10-16T05:35:16;3.83;;;1.50;;
10872;SDS011;34586;53.616;10.032;2022-10-16T05:37:43;5.20;;;1.80;;
10872;SDS011;34586;53.616;10.032;2022-10-16T05:40:09;5.37;;;2.10;;
10872;SDS011;34586;53.616;10.032;2022-10-16T05:42:35;2.73;;;1.80;;
10872;SDS011;34586;53.616;10.032;2022-10-16T05:45:02;4.60;;;1.87;;
10872;SDS011;34586;53.616;10.032;2022-10-16T05:47:29;4.73;;;1.70;;
10872;SDS011;34586;53.616;10.032;2022-10-16T05:49:55;6.83;;;1.80;;
10872;SDS011;34586;53.616;10.032;2022-10-16T05:52:21;4.37;;;1.83;;
10872;SDS011;34586;53.616;10.032;2022-10-16T05:54:46;3.53;;;1.70;;
10872;SDS011;34586;53.616;10.032;2022-10-16T05:57:12;1.67;;;1.43;;
10872;SDS011;34586;53.616;10.032;2022-10-16T05:59:37;2.77;;;1.30;;
10872;SDS011;34586;53.616;10.032;2022-10-16T06:02:03;4.67;;;1.40;;
10872;SDS011;34586;53.616;10.032;2022-10-16T06:04:28;3.37;;;1.30;;
10872;SDS011;34586;53.616;10.032;2022-10-16T06:06:57;4.77;;;1.60;;
10872;SDS011;34586;53.616;10.032;2022-10-16T06:09:25;3.83;;;1.30;;
10872;SDS011;34586;53.616;10.032;2022-10-16T06:11:50;4.07;;;1.57;;
10872;SDS011;34586;53.616;10.032;2022-10-16T06:14:18;3.33;;;1.40;;
10872;SDS011;34586;53.616;10.032;2022-10-16T06:16:43;5.27;;;1.40;;
10872;SDS011;34586;53.616;10.032;2022-10-16T06:19:09;3.77;;;1.27;;
10872;SDS011;34586;53.616;10.032;2022-10-16T06:21:34;3.07;;;1.10;;
10872;SDS011;34586;53.616;10.032;2022-10-16T06:24:00;4.70;;;1.73;;
10872;SDS011;34586;53.616;10.032;2022-10-16T06:26:27;4.03;;;1.93;;
10872;SDS011;34586;53.616;10.032;2022-10-16T06:28:54;3.60;;;1.47;;
10872;SDS011;34586;53.616;10.032;2022-10-16T06:31:21;4.17;;;1.43;;
10872;SDS011;34586;53.616;10.032;2022-10-16T06:33:49;2.60;;;1.40;;
10872;SDS011;34586;53.616;10.032;2022-10-16T06:36:16;4.50;;;1.73;;
10872;SDS011;34586;53.616;10.032;2022-10-16T06:38:42;2.90;;;1.43;;
10872;SDS011;34586;53.616;10.032;2022-10-16T06:41:09;4.97;;;1.47;;
10872;SDS011;34586;53.616;10.032;2022-10-16T06:43:37;2.60;;;1.13;;
10872;SDS011;34586;53.616;10.032;2022-10-16T06:46:03;2.30;;;1.30;;
10872;SDS011;34586;53.616;10.032;2022-10-16T06:48:30;2.77;;;1.40;;
10872;SDS011;34586;53.616;10.032;2022-10-16T06:51:00;4.80;;;1.33;;
10872;SDS011;34586;53.616;10.032;2022-10-16T06:53:31;2.77;;;1.17;;
10872;SDS011;34586;53.616;10.032;2022-10-16T06:56:05;5.77;;;1.57;;
10872;SDS011;34586;53.616;10.032;2022-10-16T06:58:42;5.47;;;1.30;;
10872;SDS011;34586;53.616;10.032;2022-10-16T07:01:09;2.83;;;1.53;;
10872;SDS011;34586;53.616;10.032;2022-10-16T07:03:36;5.67;;;1.60;;
10872;SDS011;34586;53.616;10.032;2022-10-16T07:06:03;2.87;;;1.33;;
10872;SDS011;34586;53.616;10.032;2022-10-16T07:08:31;5.20;;;1.80;;
10872;SDS011;34586;53.616;10.032;2022-10-16T07:11:00;3.17;;;1.60;;
10872;SDS011;34586;53.616;10.032;2022-10-16T07:13:27;3.77;;;1.30;;
10872;SDS011;34586;53.616;10.032;2022-10-16T07:15:53;2.57;;;1.60;;
10872;SDS011;34586;53.616;10.032;2022-10-16T07:18:18;3.80;;;1.60;;
10872;SDS011;34586;53.616;10.032;2022-10-16T07:20:44;5.33;;;1.80;;
10872;SDS011;34586;53.616;10.032;2022-10-16T07:23:09;5.47;;;1.60;;
10872;SDS011;34586;53.616;10.032;2022-10-16T07:25:35;2.63;;;1.50;;
10872;SDS011;34586;53.616;10.032;2022-10-16T07:28:01;4.30;;;1.70;;
10872;SDS011;34586;53.616;10.032;2022-10-16T07:30:26;2.93;;;1.57;;
10872;SDS011;34586;53.616;10.032;2022-10-16T07:32:52;5.13;;;1.90;;
10872;SDS011;34586;53.616;10.032;2022-10-16T07:35:18;3.60;;;1.93;;
10872;SDS011;34586;53.616;10.032;2022-10-16T07:37:44;3.27;;;1.90;;
10872;SDS011;34586;53.616;10.032;2022-10-16T07:40:13;3.10;;;1.50;;
10872;SDS011;34586;53.616;10.032;2022-10-16T07:42:39;4.43;;;2.00;;
10872;SDS011;34586;53.616;10.032;2022-10-16T07:45:05;2.37;;;1.50;;
10872;SDS011;34586;53.616;10.032;2022-10-16T07:47:31;3.77;;;2.80;;
10872;SDS011;34586;53.616;10.032;2022-10-16T07:49:57;6.17;;;2.57;;
10872;SDS011;34586;53.616;10.032;2022-10-16T07:52:22;3.03;;;1.73;;
10872;SDS011;34586;53.616;10.032;2022-10-16T07:54:47;2.63;;;1.67;;
10872;SDS011;34586;53.616;10.032;2022-10-16T07:57:13;4.23;;;2.40;;
10872;SDS011;34586;53.616;10.032;2022-10-16T07:59:45;2.90;;;2.10;;
10872;SDS011;34586;53.616;10.032;2022-10-16T08:02:11;6.13;;;1.77;;
10872;SDS011;34586;53.616;10.032;2022-10-16T08:04:37;3.47;;;1.93;;
10872;SDS011;34586;53.616;10.032;2022-10-16T08:07:02;2.07;;;1.73;;
10872;SDS011;34586;53.616;10.032;2022-10-16T08:09:28;3.30;;;1.73;;
10872;SDS011;34586;53.616;10.032;2022-10-16T08:11:53;3.40;;;1.80;;
10872;SDS011;34586;53.616;10.032;2022-10-16T08:14:19;5.10;;;2.03;;
10872;SDS011;34586;53.616;10.032;2022-10-16T08:16:45;4.47;;;2.03;;
10872;SDS011;34586;53.616;10.032;2022-10-16T08:19:10;3.03;;;2.00;;
10872;SDS011;34586;53.616;10.032;2022-10-16T08:21:36;3.77;;;2.00;;
10872;SDS011;34586;53.616;10.032;2022-10-16T08:24:07;3.63;;;1.80;;
10872;SDS011;34586;53.616;10.032;2022-10-16T08:26:33;2.20;;;1.90;;
10872;SDS011;34586;53.616;10.032;2022-10-16T08:28:59;1.60;;;1.40;;
10872;SDS011;34586;53.616;10.032;2022-10-16T08:31:24;3.23;;;1.50;;
10872;SDS011;34586;53.616;10.032;2022-10-16T08:33:52;4.30;;;1.93;;
10872;SDS011;34586;53.616;10.032;2022-10-16T08:36:17;5.63;;;2.10;;
10872;SDS011;34586;53.616;10.032;2022-10-16T08:38:43;3.53;;;1.83;;
10872;SDS011;34586;53.616;10.032;2022-10-16T08:46:32;2.50;;;1.90;;
10872;SDS011;34586;53.616;10.032;2022-10-16T08:49:05;3.10;;;2.00;;
10872;SDS011;34586;53.616;10.032;2022-10-16T08:51:36;5.10;;;1.67;;
10872;SDS011;34586;53.616;10.032;2022-10-16T08:54:50;3.93;;;1.87;;
10872;SDS011;34586;53.616;10.032;2022-10-16T08:56:56;4.60;;;2.00;;
10872;SDS011;34586;53.616;10.032;2022-10-16T08:59:26;4.87;;;2.20;;
10872;SDS011;34586;53.616;10.032;2022-10-16T09:01:52;3.13;;;1.67;;
10872;SDS011;34586;53.616;10.032;2022-10-16T09:07:03;2.33;;;1.70;;
10872;SDS011;34586;53.616;10.032;2022-10-16T09:12:36;4.70;;;1.57;;
10872;SDS011;34586;53.616;10.032;2022-10-16T09:15:35;4.17;;;1.80;;
10872;SDS011;34586;53.616;10.032;2022-10-16T09:18:22;2.30;;;1.53;;
10872;SDS011;34586;53.616;10.032;2022-10-16T09:21:01;2.77;;;1.43;;
10872;SDS011;34586;53.616;10.032;2022-10-16T09:23:35;4.10;;;1.50;;
10872;SDS011;34586;53.616;10.032;2022-10-16T09:26:02;2.63;;;1.50;;
10872;SDS011;34586;53.616;10.032;2022-10-16T09:28:30;2.03;;;1.30;;
10872;SDS011;34586;53.616;10.032;2022-10-16T09:30:55;2.30;;;1.10;;
10872;SDS011;34586;53.616;10.032;2022-10-16T09:33:23;3.87;;;1.00;;
10872;SDS011;34586;53.616;10.032;2022-10-16T09:35:54;2.97;;;1.10;;
10872;SDS011;34586;53.616;10.032;2022-10-16T09:38:31;3.93;;;1.37;;
10872;SDS011;34586;53.616;10.032;2022-10-16T09:40:58;3.83;;;1.50;;
10872;SDS011;34586;53.616;10.032;2022-10-16T09:43:32;4.37;;;2.20;;
10872;SDS011;34586;53.616;10.032;2022-10-16T09:46:09;5.50;;;1.60;;
10872;SDS011;34586;53.616;10.032;2022-10-16T09:48:50;2.27;;;1.40;;
10872;SDS011;34586;53.616;10.032;2022-10-16T09:53:55;4.00;;;1.30;;
10872;SDS011;34586;53.616;10.032;2022-10-16T09:56:29;3.33;;;1.07;;
10872;SDS011;34586;53.616;10.032;2022-10-16T09:59:02;3.17;;;0.90;;
10872;SDS011;34586;53.616;10.032;2022-10-16T10:01:40;3.70;;;0.97;;
10872;SDS011;34586;53.616;10.032;2022-10-16T10:04:15;3.23;;;0.90;;
10872;SDS011;34586;53.616;10.032;2022-10-16T10:12:20;4.83;;;1.00;;
10872;SDS011;34586;53.616;10.032;2022-10-16T10:14:49;3.40;;;1.00;;
10872;SDS011;34586;53.616;10.032;2022-10-16T10:17:18;5.43;;;1.13;;
10872;SDS011;34586;53.616;10.032;2022-10-16T10:19:47;2.07;;;1.00;;
10872;SDS011;34586;53.616;10.032;2022-10-16T10:22:17;4.40;;;1.23;;
10872;SDS011;34586;53.616;10.032;2022-10-16T10:27:39;3.00;;;1.10;;
10872;SDS011;34586;53.616;10.032;2022-10-16T10:30:49;5.27;;;1.17;;
10872;SDS011;34586;53.616;10.032;2022-10-16T10:36:23;3.57;;;0.97;;
10872;SDS011;34586;53.616;10.032;2022-10-16T10:39:00;3.20;;;1.00;;
10872;SDS011;34586;53.616;10.032;2022-10-16T10:44:49;3.30;;;1.00;;
10872;SDS011;34586;53.616;10.032;2022-10-16T10:50:26;2.87;;;1.00;;
10872;SDS011;34586;53.616;10.032;2022-10-16T10:53:00;4.33;;;1.03;;
10872;SDS011;34586;53.616;10.032;2022-10-16T10:55:51;4.57;;;1.00;;
10872;SDS011;34586;53.616;10.032;2022-10-16T10:58:52;4.23;;;0.90;;
10872;SDS011;34586;53.616;10.032;2022-10-16T11:01:59;2.50;;;0.70;;
10872;SDS011;34586;53.616;10.032;2022-10-16T11:07:26;4.57;;;0.90;;
10872;SDS011;34586;53.616;10.032;2022-10-16T11:09:57;2.23;;;0.80;;
10872;SDS011;34586;53.616;10.032;2022-10-16T11:12:29;2.77;;;1.10;;
10872;SDS011;34586;53.616;10.032;2022-10-16T11:15:13;3.67;;;1.00;;
10872;SDS011;34586;53.616;10.032;2022-10-16T11:17:48;3.53;;;0.97;;
10872;SDS011;34586;53.616;10.032;2022-10-16T11:23:08;3.00;;;0.73;;
10872;SDS011;34586;53.616;10.032;2022-10-16T11:25:48;3.13;;;1.00;;
10872;SDS011;34586;53.616;10.032;2022-10-16T11:33:51;3.63;;;0.97;;
10872;SDS011;34586;53.616;10.032;2022-10-16T11:36:28;4.87;;;0.83;;
10872;SDS011;34586;53.616;10.032;2022-10-16T11:41:35;6.60;;;1.60;;
10872;SDS011;34586;53.616;10.032;2022-10-16T11:47:01;5.27;;;0.80;;
10872;SDS011;34586;53.616;10.032;2022-10-16T11:49:26;3.73;;;0.90;;
10872;SDS011;34586;53.616;10.032;2022-10-16T11:51:59;2.10;;;0.60;;
10872;SDS011;34586;53.616;10.032;2022-10-16T11:54:59;6.03;;;0.70;;
10872;SDS011;34586;53.616;10.032;2022-10-16T11:57:33;3.17;;;0.60;;
10872;SDS011;34586;53.616;10.032;2022-10-16T12:00:06;4.07;;;0.80;;
10872;SDS011;34586;53.616;10.032;2022-10-16T12:08:16;1.17;;;0.60;;
10872;SDS011;34586;53.616;10.032;2022-10-16T12:10:45;3.77;;;0.90;;
10872;SDS011;34586;53.616;10.032;2022-10-16T12:18:41;3.43;;;0.87;;
10872;SDS011;34586;53.616;10.032;2022-10-16T12:21:11;1.00;;;0.60;;
10872;SDS011;34586;53.616;10.032;2022-10-16T12:23:53;5.17;;;0.70;;
10872;SDS011;34586;53.616;10.032;2022-10-16T12:26:39;4.90;;;0.90;;
10872;SDS011;34586;53.616;10.032;2022-10-16T12:29:14;1.80;;;0.70;;
10872;SDS011;34586;53.616;10.032;2022-10-16T12:32:02;3.87;;;0.70;;
10872;SDS011;34586;53.616;10.032;2022-10-16T12:34:32;2.70;;;0.70;;
10872;SDS011;34586;53.616;10.032;2022-10-16T12:39:51;3.00;;;0.80;;
10872;SDS011;34586;53.616;10.032;2022-10-16T12:44:51;4.50;;;0.70;;
10872;SDS011;34586;53.616;10.032;2022-10-16T12:49:55;1.83;;;0.70;;
10872;SDS011;34586;53.616;10.032;2022-10-16T12:54:58;3.27;;;0.90;;
10872;SDS011;34586;53.616;10.032;2022-10-16T13:19:54;5.07;;;0.70;;
10872;SDS011;34586;53.616;10.032;2022-10-16T13:28:04;5.30;;;0.97;;
10872;SDS011;34586;53.616;10.032;2022-10-16T13:30:38;4.50;;;1.00;;
10872;SDS011;34586;53.616;10.032;2022-10-16T13:35:46;3.47;;;0.97;;
10872;SDS011;34586;53.616;10.032;2022-10-16T13:38:15;3.87;;;0.70;;
10872;SDS011;34586;53.616;10.032;2022-10-16T13:41:04;6.40;;;0.93;;
10872;SDS011;34586;53.616;10.032;2022-10-16T13:43:38;2.40;;;0.70;;
10872;SDS011;34586;53.616;10.032;2022-10-16T13:46:16;4.97;;;1.17;;
10872;SDS011;34586;53.616;10.032;2022-10-16T13:48:55;3.07;;;0.87;;
10872;SDS011;34586;53.616;10.032;2022-10-16T13:51:26;2.90;;;0.90;;
10872;SDS011;34586;53.616;10.032;2022-10-16T13:53:52;3.53;;;0.83;;
10872;SDS011;34586;53.616;10.032;2022-10-16T13:56:22;2.10;;;0.63;;
10872;SDS011;34586;53.616;10.032;2022-10-16T13:59:02;4.37;;;0.90;;
10872;SDS011;34586;53.616;10.032;2022-10-16T14:01:47;3.10;;;0.87;;
10872;SDS011;34586;53.616;10.032;2022-10-16T14:04:13;4.80;;;1.07;;
10872;SDS011;34586;53.616;10.032;2022-10-16T14:06:41;5.70;;;1.00;;
10872;SDS011;34586;53.616;10.032;2022-10-16T14:09:21;5.00;;;0.97;;
10872;SDS011;34586;53.616;10.032;2022-10-16T14:11:53;3.60;;;0.83;;
10872;SDS011;34586;53.616;10.032;2022-10-16T14:14:22;3.37;;;1.03;;
10872;SDS011;34586;53.616;10.032;2022-10-16T14:16:49;3.40;;;0.80;;
10872;SDS011;34586;53.616;10.032;2022-10-16T14:19:18;6.57;;;1.13;;
10872;SDS011;34586;53.616;10.032;2022-10-16T14:21:45;4.00;;;0.80;;
10872;SDS011;34586;53.616;10.032;2022-10-16T14:24:12;2.70;;;1.00;;
10872;SDS011;34586;53.616;10.032;2022-10-16T14:26:47;8.60;;;1.40;;
10872;SDS011;34586;53.616;10.032;2022-10-16T14:29:15;3.33;;;0.80;;
10872;SDS011;34586;53.616;10.032;2022-10-16T14:31:53;2.17;;;0.70;;
10872;SDS011;34586;53.616;10.032;2022-10-16T14:34:24;5.53;;;1.30;;
10872;SDS011;34586;53.616;10.032;2022-10-16T14:36:52;1.63;;;0.70;;
10872;SDS011;34586;53.616;10.032;2022-10-16T14:39:19;2.37;;;0.80;;
10872;SDS011;34586;53.616;10.032;2022-10-16T14:41:48;3.33;;;0.90;;
10872;SDS011;34586;53.616;10.032;2022-10-16T14:44:14;3.00;;;0.80;;
10872;SDS011;34586;53.616;10.032;2022-10-16T14:46:43;6.47;;;0.90;;
10872;SDS011;34586;53.616;10.032;2022-10-16T14:51:35;4.73;;;0.93;;
10872;SDS011;34586;53.616;10.032;2022-10-16T14:54:02;4.70;;;0.93;;
10872;SDS011;34586;53.616;10.032;2022-10-16T14:57:12;2.77;;;0.97;;
10872;SDS011;34586;53.616;10.032;2022-10-16T14:59:40;2.90;;;0.90;;
10872;SDS011;34586;53.616;10.032;2022-10-16T15:02:27;5.97;;;1.00;;
10872;SDS011;34586;53.616;10.032;2022-10-16T15:04:55;2.90;;;0.80;;
10872;SDS011;34586;53.616;10.032;2022-10-16T15:07:21;4.13;;;0.97;;
10872;SDS011;34586;53.616;10.032;2022-10-16T15:09:47;3.83;;;0.90;;
10872;SDS011;34586;53.616;10.032;2022-10-16T15:12:12;3.70;;;1.20;;
10872;SDS011;34586;53.616;10.032;2022-10-16T15:14:38;3.07;;;1.07;;
10872;SDS011;34586;53.616;10.032;2022-10-16T15:17:03;3.67;;;1.00;;
10872;SDS011;34586;53.616;10.032;2022-10-16T15:19:29;4.77;;;0.87;;
10872;SDS011;34586;53.616;10.032;2022-10-16T15:21:59;4.20;;;1.00;;
10872;SDS011;34586;53.616;10.032;2022-10-16T15:24:24;4.17;;;1.00;;
10872;SDS011;34586;53.616;10.032;2022-10-16T15:26:50;2.67;;;0.73;;
10872;SDS011;34586;53.616;10.032;2022-10-16T15:29:15;4.07;;;0.97;;
10872;SDS011;34586;53.616;10.032;2022-10-16T15:31:41;4.43;;;1.00;;
10872;SDS011;34586;53.616;10.032;2022-10-16T15:34:12;5.53;;;0.80;;
10872;SDS011;34586;53.616;10.032;2022-10-16T15:36:38;3.43;;;1.33;;
10872;SDS011;34586;53.616;10.032;2022-10-16T15:41:44;4.13;;;1.00;;
10872;SDS011;34586;53.616;10.032;2022-10-16T15:44:15;3.23;;;0.73;;
10872;SDS011;34586;53.616;10.032;2022-10-16T15:46:41;5.77;;;1.30;;
10872;SDS011;34586;53.616;10.032;2022-10-16T15:49:08;3.20;;;1.07;;
10872;SDS011;34586;53.616;10.032;2022-10-16T15:51:37;7.83;;;1.13;;
10872;SDS011;34586;53.616;10.032;2022-10-16T15:54:04;4.97;;;0.83;;
10872;SDS011;34586;53.616;10.032;2022-10-16T15:56:32;6.60;;;1.63;;
10872;SDS011;34586;53.616;10.032;2022-10-16T15:58:58;7.83;;;1.00;;
10872;SDS011;34586;53.616;10.032;2022-10-16T16:01:25;6.93;;;1.20;;
10872;SDS011;34586;53.616;10.032;2022-10-16T16:03:54;8.00;;;1.30;;
10872;SDS011;34586;53.616;10.032;2022-10-16T16:06:21;2.50;;;1.10;;
10872;SDS011;34586;53.616;10.032;2022-10-16T16:08:57;3.53;;;1.40;;
10872;SDS011;34586;53.616;10.032;2022-10-16T16:11:26;3.83;;;1.10;;
10872;SDS011;34586;53.616;10.032;2022-10-16T16:13:52;7.03;;;1.43;;
10872;SDS011;34586;53.616;10.032;2022-10-16T16:16:19;4.13;;;0.90;;
10872;SDS011;34586;53.616;10.032;2022-10-16T16:18:45;4.57;;;1.40;;
10872;SDS011;34586;53.616;10.032;2022-10-16T16:21:11;4.23;;;1.50;;
10872;SDS011;34586;53.616;10.032;2022-10-16T16:23:37;7.20;;;1.30;;
10872;SDS011;34586;53.616;10.032;2022-10-16T16:28:39;6.70;;;1.13;;
10872;SDS011;34586;53.616;10.032;2022-10-16T16:31:06;5.17;;;1.20;;
10872;SDS011;34586;53.616;10.032;2022-10-16T16:33:32;6.97;;;1.90;;
10872;SDS011;34586;53.616;10.032;2022-10-16T16:35:59;4.63;;;1.33;;
10872;SDS011;34586;53.616;10.032;2022-10-16T16:38:26;5.80;;;1.33;;
10872;SDS011;34586;53.616;10.032;2022-10-16T16:40:52;3.80;;;1.37;;
10872;SDS011;34586;53.616;10.032;2022-10-16T16:43:18;4.03;;;1.40;;
10872;SDS011;34586;53.616;10.032;2022-10-16T16:45:47;4.87;;;1.10;;
10872;SDS011;34586;53.616;10.032;2022-10-16T16:48:12;4.77;;;1.60;;
10872;SDS011;34586;53.616;10.032;2022-10-16T16:50:38;5.37;;;2.13;;
10872;SDS011;34586;53.616;10.032;2022-10-16T16:53:04;4.27;;;1.50;;